메인 페이지
METAR-TAF:

METAR-TAF

공항 :

앤토니오 B. 원 팻 국제공항

하갓냐, 괌, 미국

위도: 13-29N, 경도: 144-48E, 고도: 91m

현재 날씨관측

예보는 45분 전, 04:21시(UTC)에 발표되었습니다.
북동10kt, 순간 최대 풍속 22kt
온도 29°C
습도 94%
기압 1009 hPa
시정: 11.3km
고도 2200ft 상공 구름 많음
고도 3600ft 상공 구름 많음
강한비, 박무

METAR: PGUM 150421Z COR 04010G22KT 7SM +RA BR BKN022 BKN036 29/28 A2980 RMK AO2 RAB19 P0000 T02940278

시각: 15:06 (05:06 UTC)

예보

예보는 27분 전, 04:39시(UTC)에 발표되었습니다.
예보 대상 시간: 15일 05시부터 16일 06시까지 (UTC)
북동15kt, 순간 최대 풍속 22kt
시정: 10km
고도 1500ft 상공 구름 조금
고도 2500ft 상공 구름 많음
시계 내 소나기
15일 0800시부터 (UTC)
동북동9kt
시정: 10km
고도 1800ft 상공 구름 조금
고도 2500ft 상공 구름 보통
시계 내 소나기
16일 0100시부터 (UTC)
15kt, 순간 최대 풍속 22kt
시정: 10km
고도 1800ft 상공 구름 조금
고도 2500ft 상공 구름 보통
시계 내 소나기

TAF: PGUM 150439Z 1505/1606 05015G22KT P6SM VCSH FEW015 BKN025 FM150800 07009KT P6SM VCSH FEW018 SCT025 FM160100 08015G22KT P6SM VCSH FEW018 SCT025

4,000개 이상의 공항 관측 자료 및 예보 (METAR 및 TAF 보고).

지도상에서 검색 가능한 기상관측소가 노란 점과 빨간 점으로 표시되어 있습니다.

기상관측소 명을 보려면 표시 위로 마우스를 이동하세요.

날씨 관측과 예보를 보려면 클릭하세요.

지도 변경 : 확대하려면 엑스 표시가 있는 녹색 버튼, 축소하려면 빼기 표시가 있는 녹색 버튼, 다음 페이지의 지도를 보려면 녹색 화살표를 클릭하세요.


METAR-TAF: